createdAt,value
2023-05-16T00:00:41.938Z,20.00
2023-05-16T00:05:43.233Z,19.08
2023-05-16T00:10:44.622Z,20.35
2023-05-16T00:15:46.012Z,20.20
2023-05-16T00:20:48.241Z,19.55
2023-05-16T00:25:49.673Z,18.80
2023-05-16T00:30:51.013Z,18.92
2023-05-16T00:35:53.657Z,18.98
2023-05-16T00:40:55.014Z,18.08
2023-05-16T00:45:57.921Z,17.38
2023-05-16T00:51:00.367Z,17.65
2023-05-16T00:56:01.995Z,16.60
2023-05-16T01:01:07.988Z,17.67
2023-05-16T01:06:09.613Z,17.23
2023-05-16T01:11:31.039Z,15.98
2023-05-16T01:16:59.671Z,16.38
2023-05-16T01:22:34.275Z,15.77
2023-05-16T01:32:37.225Z,14.52
2023-05-16T01:37:48.692Z,15.55
2023-05-16T01:42:54.705Z,14.90
2023-05-16T01:48:06.030Z,14.90
2023-05-16T01:53:12.005Z,14.13
2023-05-16T01:58:19.036Z,13.38
2023-05-16T02:03:20.372Z,13.43
2023-05-16T02:08:21.846Z,13.45
2023-05-16T02:13:23.212Z,13.27
2023-05-16T02:18:24.657Z,15.45
2023-05-16T02:23:25.933Z,14.93
2023-05-16T02:28:27.251Z,15.93
2023-05-16T02:33:29.022Z,15.57
2023-05-16T02:38:30.404Z,15.43
2023-05-16T02:43:32.015Z,16.98
2023-05-16T02:48:33.350Z,15.95
2023-05-16T02:53:34.659Z,14.88
2023-05-16T02:58:36.059Z,16.48
2023-05-16T03:03:37.713Z,17.05
2023-05-16T03:08:39.299Z,15.30
2023-05-16T03:13:41.564Z,16.30
2023-05-16T03:18:43.226Z,18.27
2023-05-16T03:23:44.588Z,15.95
2023-05-16T03:28:45.959Z,16.42
2023-05-16T03:33:47.259Z,16.83
2023-05-16T03:38:48.732Z,15.45
2023-05-16T03:43:50.135Z,16.48
2023-05-16T03:48:51.614Z,16.60
2023-05-16T03:53:52.875Z,17.67
2023-05-16T03:58:54.336Z,17.90
2023-05-16T04:03:55.612Z,16.88
2023-05-16T04:08:56.932Z,17.58
2023-05-16T04:13:59.524Z,15.45
2023-05-16T04:19:01.180Z,14.70
2023-05-16T04:24:02.607Z,13.95
2023-05-16T04:29:03.972Z,14.48
2023-05-16T04:34:05.874Z,12.68
2023-05-16T04:39:08.694Z,13.60
2023-05-16T04:44:11.230Z,13.32
2023-05-16T04:49:12.828Z,12.15
2023-05-16T04:54:14.578Z,8.82
2023-05-16T04:59:15.955Z,7.90
2023-05-16T05:04:17.719Z,7.22
2023-05-16T05:09:19.228Z,6.55
2023-05-16T05:14:21.604Z,5.70
2023-05-16T05:19:23.189Z,5.38
2023-05-16T05:24:24.529Z,4.65
2023-05-16T05:29:26.158Z,3.88
2023-05-16T05:34:27.424Z,3.15
2023-05-16T05:39:28.746Z,3.55
2023-05-16T05:44:30.690Z,3.13
2023-05-16T05:49:32.586Z,4.05
2023-05-16T05:54:33.967Z,3.78
2023-05-16T05:59:35.574Z,2.15
2023-05-16T06:04:36.954Z,0.70
2023-05-16T06:09:38.451Z,0.40
2023-05-16T06:14:39.935Z,0.40
2023-05-16T06:19:41.432Z,2.05
2023-05-16T06:24:42.998Z,2.03
2023-05-16T06:29:44.366Z,2.70
2023-05-16T06:34:45.678Z,2.38
2023-05-16T06:39:47.133Z,2.50
2023-05-16T06:44:48.589Z,2.55
2023-05-16T06:49:50.862Z,2.40
2023-05-16T06:54:52.708Z,2.20
2023-05-16T06:59:54.145Z,2.13
2023-05-16T07:04:55.678Z,2.30
2023-05-16T07:09:56.997Z,1.95
2023-05-16T07:14:58.413Z,1.83
2023-05-16T07:20:01.825Z,1.40
2023-05-16T07:25:05.799Z,1.17
2023-05-16T07:30:09.785Z,0.70
2023-05-16T07:35:11.373Z,0.60
2023-05-16T07:40:13.201Z,0.35
2023-05-16T07:45:14.850Z,0.10
2023-05-16T07:50:16.361Z,0.30
2023-05-16T07:55:17.818Z,0.20
2023-05-16T08:00:20.152Z,0.08
2023-05-16T08:05:21.824Z,0.30
2023-05-16T08:10:26.321Z,0.20
2023-05-16T08:15:28.618Z,0.10
2023-05-16T08:20:30.508Z,0.30
2023-05-16T08:25:32.063Z,0.30
2023-05-16T08:30:33.563Z,0.32
2023-05-16T08:35:35.513Z,0.80
2023-05-16T08:40:36.933Z,0.57
2023-05-16T08:45:40.152Z,0.55
2023-05-16T08:50:42.906Z,0.75
2023-05-16T08:55:45.609Z,0.60
2023-05-16T09:00:47.965Z,0.93
2023-05-16T09:05:50.004Z,0.80
2023-05-16T09:10:51.325Z,1.08
2023-05-16T09:16:13.069Z,0.93
2023-05-16T09:21:15.766Z,0.90
2023-05-16T09:26:18.776Z,1.25
2023-05-16T09:31:26.685Z,1.13
2023-05-16T09:36:28.311Z,1.48
2023-05-16T09:41:34.162Z,1.10
2023-05-16T09:46:37.527Z,1.83
2023-05-16T09:51:41.259Z,1.07
2023-05-16T09:56:50.859Z,0.90
2023-05-16T10:01:53.123Z,1.15
2023-05-16T10:06:58.989Z,0.80
2023-05-16T10:12:07.077Z,0.90
2023-05-16T10:17:12.616Z,0.70
2023-05-16T10:22:16.515Z,1.00
2023-05-16T10:27:19.432Z,1.58
2023-05-16T10:32:23.364Z,2.35
2023-05-16T10:37:25.625Z,1.25
2023-05-16T10:42:27.024Z,1.40
2023-05-16T10:47:28.467Z,1.17
2023-05-16T10:52:35.456Z,1.33
2023-05-16T10:57:37.006Z,1.65
2023-05-16T11:02:41.785Z,1.92
2023-05-16T11:07:43.948Z,1.40
2023-05-16T11:12:48.534Z,1.67
2023-05-16T11:18:03.290Z,0.90
2023-05-16T11:23:17.397Z,0.63
2023-05-16T11:28:22.557Z,0.85
2023-05-16T11:33:25.052Z,1.20
2023-05-16T11:38:27.843Z,1.27
2023-05-16T11:43:29.242Z,1.48
2023-05-16T11:48:36.255Z,0.85
2023-05-16T11:53:38.560Z,0.93
2023-05-16T11:58:40.073Z,0.93
2023-05-16T12:03:41.968Z,1.10
2023-05-16T12:08:50.607Z,0.70
2023-05-16T12:13:52.667Z,1.17
2023-05-16T12:18:54.312Z,0.95
2023-05-16T12:23:58.368Z,1.52
2023-05-16T12:34:04.667Z,0.80
2023-05-16T12:39:06.049Z,0.60
2023-05-16T12:44:13.204Z,0.73
2023-05-16T12:49:14.837Z,0.95
2023-05-16T12:54:16.782Z,0.73
2023-05-16T12:59:19.905Z,0.90
2023-05-16T13:04:22.935Z,0.80
2023-05-16T13:09:24.419Z,1.20
2023-05-16T13:14:25.750Z,0.40
2023-05-16T13:19:27.306Z,1.05
2023-05-16T13:24:28.976Z,0.65
2023-05-16T13:29:30.707Z,0.65
2023-05-16T13:34:32.193Z,1.30
2023-05-16T13:39:33.579Z,1.15
2023-05-16T13:44:34.946Z,0.75
2023-05-16T13:49:36.357Z,0.32
2023-05-16T13:54:39.585Z,0.43
2023-05-16T14:04:46.726Z,0.57
2023-05-16T14:09:49.108Z,0.52
2023-05-16T14:14:50.516Z,0.80
2023-05-16T14:19:52.571Z,0.93
2023-05-16T14:24:53.896Z,0.55
2023-05-16T14:29:56.009Z,0.40
2023-05-16T14:34:57.369Z,0.98
2023-05-16T14:39:59.629Z,1.00
2023-05-16T14:45:01.440Z,0.68
2023-05-16T14:50:02.892Z,1.25
2023-05-16T14:55:04.965Z,0.40
2023-05-16T15:00:07.457Z,0.60
2023-05-16T15:05:09.823Z,0.35
2023-05-16T15:10:11.697Z,0.70
2023-05-16T15:15:14.938Z,0.50
2023-05-16T15:20:18.721Z,0.70
2023-05-16T15:25:21.849Z,0.60
2023-05-16T15:30:23.437Z,1.25
2023-05-16T15:35:24.954Z,0.98
2023-05-16T15:40:27.273Z,0.40
2023-05-16T15:45:29.191Z,0.68
2023-05-16T15:50:31.109Z,1.10
2023-05-16T15:55:32.486Z,1.08
2023-05-16T16:00:33.950Z,0.50
2023-05-16T16:05:35.678Z,0.30
2023-05-16T16:10:37.008Z,0.22
2023-05-16T16:15:39.331Z,1.10
2023-05-16T16:20:40.869Z,0.65
2023-05-16T16:25:42.332Z,0.70
2023-05-16T16:30:44.806Z,0.30
2023-05-16T16:35:46.279Z,0.25
2023-05-16T16:40:47.604Z,0.30
2023-05-16T16:45:49.576Z,0.65
2023-05-16T16:50:52.113Z,0.50
2023-05-16T16:55:53.465Z,0.45
2023-05-16T17:00:54.789Z,0.45
2023-05-16T17:05:56.220Z,0.90
2023-05-16T17:10:59.760Z,0.98
2023-05-16T17:16:01.450Z,0.65
2023-05-16T17:21:02.945Z,0.50
2023-05-16T17:26:04.404Z,0.43
2023-05-16T17:31:05.831Z,0.52
2023-05-16T17:36:07.856Z,0.40
2023-05-16T17:41:09.234Z,0.60
2023-05-16T17:46:10.847Z,0.52
2023-05-16T17:51:12.224Z,0.52
2023-05-16T17:56:14.059Z,0.60
2023-05-16T18:01:15.480Z,0.70
2023-05-16T18:06:17.004Z,0.45
2023-05-16T18:11:18.654Z,0.55
2023-05-16T18:16:20.287Z,0.43
2023-05-16T18:21:21.689Z,0.40
2023-05-16T18:26:23.148Z,0.57
2023-05-16T18:31:24.810Z,0.60
2023-05-16T18:36:26.213Z,0.50
2023-05-16T18:41:27.700Z,0.60
2023-05-16T18:46:29.089Z,0.95
2023-05-16T18:51:30.700Z,0.70
2023-05-16T18:56:32.348Z,0.80
2023-05-16T19:01:34.269Z,0.93
2023-05-16T19:06:35.601Z,0.73
2023-05-16T19:11:37.412Z,0.90
2023-05-16T19:16:38.747Z,0.80
2023-05-16T19:21:40.062Z,0.65
2023-05-16T19:26:41.558Z,0.77
2023-05-16T19:31:42.927Z,0.60
2023-05-16T19:36:44.389Z,1.00
2023-05-16T19:41:47.747Z,0.80
2023-05-16T19:46:54.203Z,0.73
2023-05-16T19:51:55.723Z,0.93
2023-05-16T19:56:57.044Z,0.73
2023-05-16T20:01:59.684Z,1.33
2023-05-16T20:07:01.243Z,0.70
2023-05-16T20:12:03.278Z,0.80
2023-05-16T20:17:04.674Z,0.80
2023-05-16T20:22:05.993Z,0.80
2023-05-16T20:27:07.366Z,0.73
2023-05-16T20:32:08.873Z,0.70
2023-05-16T20:37:10.264Z,1.10
2023-05-16T20:42:11.860Z,1.08
2023-05-16T20:47:13.989Z,1.05
2023-05-16T20:52:15.447Z,0.90
2023-05-16T20:57:17.656Z,0.82
2023-05-16T21:02:19.032Z,1.10
2023-05-16T21:07:21.430Z,0.90
2023-05-16T21:12:22.802Z,1.15
2023-05-16T21:17:24.144Z,0.98
2023-05-16T21:22:25.538Z,1.10
2023-05-16T21:27:27.473Z,0.90
2023-05-16T21:32:32.204Z,1.05
2023-05-16T21:37:33.876Z,1.20
2023-05-16T21:42:36.217Z,0.75
2023-05-16T21:47:37.577Z,1.13
2023-05-16T21:52:39.784Z,1.20
2023-05-16T21:57:41.237Z,1.20
2023-05-16T22:02:42.785Z,1.20
2023-05-16T22:07:44.282Z,0.70
2023-05-16T22:12:45.668Z,0.93
2023-05-16T22:17:48.576Z,0.95
2023-05-16T22:22:50.887Z,1.10
2023-05-16T22:27:52.330Z,1.00
2023-05-16T22:32:54.600Z,1.33
2023-05-16T22:37:56.018Z,1.05
2023-05-16T22:42:57.454Z,1.05
2023-05-16T22:47:58.914Z,0.90
2023-05-16T22:53:00.309Z,1.55
2023-05-16T22:58:01.833Z,0.80
2023-05-16T23:03:03.329Z,1.33
2023-05-16T23:08:05.188Z,1.05
2023-05-16T23:13:06.561Z,1.08
2023-05-16T23:18:08.100Z,0.80
2023-05-16T23:23:09.568Z,1.30
2023-05-16T23:28:10.962Z,1.10
2023-05-16T23:33:14.105Z,1.05
2023-05-16T23:38:15.822Z,0.90
2023-05-16T23:43:17.200Z,1.33
2023-05-16T23:48:18.673Z,1.25
2023-05-16T23:53:21.051Z,1.10
2023-05-16T23:58:22.455Z,1.20
